Alpine, Virginia
Current Conditions -  °F | °C
As of 12:15 PM on Thursday 27 Nov 2014 (Local Time) from K8W2 Reporting Station
Overcast Overcast  
Wind Chill:   Ceiling: 5000
Heat Index:   Visibility: 2.5mi
Dew Point:   Wind: 0mph
Humidity: 98%   Direction: NA
Pressure: 30.04"   Gusts: NA
Location:  38.6726°N, 78.6691°W
Report Text: K8W2 271715Z AUTO 00000KT 2 1/2SM SCT042 OVC050 01/01 A3004 RMK AO1 T00100007
Loading
Personal Weather Stations






























Interactive Weather Map New forecast layout! Learn more

10-Day Weather Forecast

Advertisements
Track Severe Weather on mobile